sensor_id;sensor_type;location;lat;lon;timestamp;pressure;altitude;pressure_sealevel;temperature;humidity
46448;BME280;32145;50.390;30.778;2022-07-29T00:01:33;100488.91;;;16.00;63.23
46448;BME280;32145;50.390;30.778;2022-07-29T00:04:18;100486.94;;;15.95;62.88
46448;BME280;32145;50.390;30.778;2022-07-29T00:07:02;100487.16;;;15.94;62.74
46448;BME280;32145;50.390;30.778;2022-07-29T00:09:46;100483.88;;;15.92;63.22
46448;BME280;32145;50.390;30.778;2022-07-29T00:12:32;100486.84;;;15.90;63.04
46448;BME280;32145;50.390;30.778;2022-07-29T00:15:16;100485.72;;;15.86;62.96
46448;BME280;32145;50.390;30.778;2022-07-29T00:18:00;100488.94;;;15.83;63.15
46448;BME280;32145;50.390;30.778;2022-07-29T00:20:44;100484.81;;;15.80;63.19
46448;BME280;32145;50.390;30.778;2022-07-29T00:23:28;100497.16;;;15.83;63.11
46448;BME280;32145;50.390;30.778;2022-07-29T00:26:12;100492.53;;;15.83;63.45
46448;BME280;32145;50.390;30.778;2022-07-29T00:28:58;100491.13;;;15.81;63.23
46448;BME280;32145;50.390;30.778;2022-07-29T00:31:42;100500.06;;;15.76;63.56
46448;BME280;32145;50.390;30.778;2022-07-29T00:34:26;100488.00;;;15.72;63.49
46448;BME280;32145;50.390;30.778;2022-07-29T00:37:10;100483.53;;;15.66;63.47
46448;BME280;32145;50.390;30.778;2022-07-29T00:39:54;100486.50;;;15.64;63.83
46448;BME280;32145;50.390;30.778;2022-07-29T00:42:43;100476.41;;;15.65;64.13
46448;BME280;32145;50.390;30.778;2022-07-29T00:45:29;100481.56;;;15.61;63.91
46448;BME280;32145;50.390;30.778;2022-07-29T00:48:13;100476.28;;;15.54;63.91
46448;BME280;32145;50.390;30.778;2022-07-29T00:50:59;100476.22;;;15.49;64.13
46448;BME280;32145;50.390;30.778;2022-07-29T00:53:44;100469.34;;;15.46;64.25
46448;BME280;32145;50.390;30.778;2022-07-29T00:56:29;100472.38;;;15.50;64.50
46448;BME280;32145;50.390;30.778;2022-07-29T00:59:14;100476.16;;;15.44;63.96
46448;BME280;32145;50.390;30.778;2022-07-29T01:02:00;100477.13;;;15.38;64.24
46448;BME280;32145;50.390;30.778;2022-07-29T01:04:44;100472.19;;;15.35;64.57
46448;BME280;32145;50.390;30.778;2022-07-29T01:07:30;100475.97;;;15.33;64.56
46448;BME280;32145;50.390;30.778;2022-07-29T01:10:15;100475.97;;;15.33;64.73
46448;BME280;32145;50.390;30.778;2022-07-29T01:13:00;100477.13;;;15.38;64.64
46448;BME280;32145;50.390;30.778;2022-07-29T01:15:47;100475.81;;;15.40;64.38
46448;BME280;32145;50.390;30.778;2022-07-29T01:18:38;100477.13;;;15.38;64.60
46448;BME280;32145;50.390;30.778;2022-07-29T01:21:46;100472.19;;;15.35;64.43
46448;BME280;32145;50.390;30.778;2022-07-29T01:24:46;100477.00;;;15.27;64.70
46448;BME280;32145;50.390;30.778;2022-07-29T01:27:42;100478.91;;;15.27;64.68
46448;BME280;32145;50.390;30.778;2022-07-29T01:30:32;100478.00;;;15.21;64.54
46448;BME280;32145;50.390;30.778;2022-07-29T01:33:20;100479.91;;;15.20;64.89
46448;BME280;32145;50.390;30.778;2022-07-29T01:36:09;100474.19;;;15.22;64.86
46448;BME280;32145;50.390;30.778;2022-07-29T01:38:57;100477.00;;;15.27;65.18
46448;BME280;32145;50.390;30.778;2022-07-29T01:41:49;100476.91;;;15.22;64.98
46448;BME280;32145;50.390;30.778;2022-07-29T01:44:39;100475.19;;;15.16;64.70
46448;BME280;32145;50.390;30.778;2022-07-29T01:47:32;100484.97;;;15.12;65.21
46448;BME280;32145;50.390;30.778;2022-07-29T01:50:18;100474.13;;;15.00;65.01
46448;BME280;32145;50.390;30.778;2022-07-29T01:53:05;100483.81;;;14.90;65.40
46448;BME280;32145;50.390;30.778;2022-07-29T01:55:51;100478.59;;;14.89;65.69
46448;BME280;32145;50.390;30.778;2022-07-29T01:58:39;100474.78;;;14.90;65.26
46448;BME280;32145;50.390;30.778;2022-07-29T02:01:24;100470.41;;;14.89;65.49
46448;BME280;32145;50.390;30.778;2022-07-29T02:04:12;100472.03;;;14.90;65.56
46448;BME280;32145;50.390;30.778;2022-07-29T02:07:00;100470.41;;;14.89;65.39
46448;BME280;32145;50.390;30.778;2022-07-29T02:09:45;100478.00;;;14.87;65.62
46448;BME280;32145;50.390;30.778;2022-07-29T02:12:32;100481.56;;;14.87;65.72
46448;BME280;32145;50.390;30.778;2022-07-29T02:15:18;100481.81;;;14.86;65.75
46448;BME280;32145;50.390;30.778;2022-07-29T02:18:06;100477.75;;;14.88;66.08
46448;BME280;32145;50.390;30.778;2022-07-29T02:20:53;100474.22;;;14.88;65.77
46448;BME280;32145;50.390;30.778;2022-07-29T02:23:39;100475.84;;;14.89;65.54
46448;BME280;32145;50.390;30.778;2022-07-29T02:26:24;100476.94;;;14.88;65.81
46448;BME280;32145;50.390;30.778;2022-07-29T02:29:11;100477.50;;;14.90;65.93
46448;BME280;32145;50.390;30.778;2022-07-29T02:31:57;100481.91;;;14.91;65.92
46448;BME280;32145;50.390;30.778;2022-07-29T02:34:43;100488.41;;;14.90;65.55
46448;BME280;32145;50.390;30.778;2022-07-29T02:37:30;100478.66;;;14.94;65.60
46448;BME280;32145;50.390;30.778;2022-07-29T02:40:16;100485.28;;;14.98;65.55
46448;BME280;32145;50.390;30.778;2022-07-29T02:43:01;100481.31;;;14.89;65.56
46448;BME280;32145;50.390;30.778;2022-07-29T02:45:50;100486.09;;;14.81;65.82
46448;BME280;32145;50.390;30.778;2022-07-29T02:48:38;100486.94;;;14.82;65.79
46448;BME280;32145;50.390;30.778;2022-07-29T02:51:27;100492.22;;;14.89;66.09
46448;BME280;32145;50.390;30.778;2022-07-29T02:54:25;100493.16;;;14.94;66.10
46448;BME280;32145;50.390;30.778;2022-07-29T02:57:14;100491.81;;;14.97;65.77
46448;BME280;32145;50.390;30.778;2022-07-29T03:00:06;100486.44;;;15.02;65.74
46448;BME280;32145;50.390;30.778;2022-07-29T03:02:53;100488.78;;;15.11;66.00
46448;BME280;32145;50.390;30.778;2022-07-29T03:05:38;100495.47;;;15.20;65.77
46448;BME280;32145;50.390;30.778;2022-07-29T03:08:24;100495.03;;;15.28;65.41
46448;BME280;32145;50.390;30.778;2022-07-29T03:11:10;100489.75;;;15.39;65.06
46448;BME280;32145;50.390;30.778;2022-07-29T03:13:55;100486.22;;;15.43;65.00
46448;BME280;32145;50.390;30.778;2022-07-29T03:16:39;100483.91;;;15.52;65.13
46448;BME280;32145;50.390;30.778;2022-07-29T03:19:24;100497.13;;;15.61;64.82
46448;BME280;32145;50.390;30.778;2022-07-29T03:22:08;100499.44;;;15.69;65.15
46448;BME280;32145;50.390;30.778;2022-07-29T03:24:53;100503.94;;;15.80;64.68
46448;BME280;32145;50.390;30.778;2022-07-29T03:27:38;100499.34;;;16.03;64.21
46448;BME280;32145;50.390;30.778;2022-07-29T03:30:23;100498.19;;;16.21;63.62
46448;BME280;32145;50.390;30.778;2022-07-29T03:33:07;100503.84;;;16.37;63.58
46448;BME280;32145;50.390;30.778;2022-07-29T03:35:51;100504.22;;;16.46;63.34
46448;BME280;32145;50.390;30.778;2022-07-29T03:38:36;100504.97;;;16.69;63.16
46448;BME280;32145;50.390;30.778;2022-07-29T03:41:22;100497.59;;;17.02;62.49
46448;BME280;32145;50.390;30.778;2022-07-29T03:44:09;100497.94;;;17.49;62.30
46448;BME280;32145;50.390;30.778;2022-07-29T03:46:57;100513.72;;;18.38;60.76
46448;BME280;32145;50.390;30.778;2022-07-29T03:49:46;100517.09;;;19.29;58.61
46448;BME280;32145;50.390;30.778;2022-07-29T03:52:32;100516.38;;;19.94;57.05
46448;BME280;32145;50.390;30.778;2022-07-29T03:55:17;100528.78;;;20.53;55.66
46448;BME280;32145;50.390;30.778;2022-07-29T03:58:01;100520.78;;;20.96;54.26
46448;BME280;32145;50.390;30.778;2022-07-29T04:00:47;100533.13;;;21.34;53.08
46448;BME280;32145;50.390;30.778;2022-07-29T04:03:32;100525.75;;;21.54;52.36
46448;BME280;32145;50.390;30.778;2022-07-29T04:06:16;100526.72;;;21.68;52.20
46448;BME280;32145;50.390;30.778;2022-07-29T04:09:00;100525.75;;;21.83;51.92
46448;BME280;32145;50.390;30.778;2022-07-29T04:11:45;100528.78;;;21.82;51.78
46448;BME280;32145;50.390;30.778;2022-07-29T04:14:30;100525.75;;;21.54;52.29
46448;BME280;32145;50.390;30.778;2022-07-29T04:17:15;100535.22;;;21.18;52.97
46448;BME280;32145;50.390;30.778;2022-07-29T04:19:59;100531.56;;;20.88;53.80
46448;BME280;32145;50.390;30.778;2022-07-29T04:22:43;100533.69;;;20.61;53.90
46448;BME280;32145;50.390;30.778;2022-07-29T04:25:27;100533.81;;;20.40;53.69
46448;BME280;32145;50.390;30.778;2022-07-29T04:28:11;100534.41;;;20.32;53.82
46448;BME280;32145;50.390;30.778;2022-07-29T04:30:55;100531.66;;;20.32;53.56
46448;BME280;32145;50.390;30.778;2022-07-29T04:33:40;100532.97;;;20.40;53.64
46448;BME280;32145;50.390;30.778;2022-07-29T04:36:25;100522.47;;;20.47;52.94
46448;BME280;32145;50.390;30.778;2022-07-29T04:39:09;100519.13;;;20.55;52.66
46448;BME280;32145;50.390;30.778;2022-07-29T04:41:53;100522.66;;;20.61;52.11
46448;BME280;32145;50.390;30.778;2022-07-29T04:44:37;100520.69;;;20.67;51.37
46448;BME280;32145;50.390;30.778;2022-07-29T04:47:21;100512.38;;;20.77;51.43
46448;BME280;32145;50.390;30.778;2022-07-29T04:50:08;100505.97;;;20.87;50.66
46448;BME280;32145;50.390;30.778;2022-07-29T04:52:53;100501.50;;;20.96;50.33
46448;BME280;32145;50.390;30.778;2022-07-29T04:55:36;100510.28;;;20.98;49.91
46448;BME280;32145;50.390;30.778;2022-07-29T04:58:20;100505.56;;;21.04;49.83
46448;BME280;32145;50.390;30.778;2022-07-29T05:01:04;100505.75;;;21.13;49.63
46448;BME280;32145;50.390;30.778;2022-07-29T05:03:48;100511.22;;;21.18;49.16
46448;BME280;32145;50.390;30.778;2022-07-29T05:06:34;100511.69;;;21.25;49.02
46448;BME280;32145;50.390;30.778;2022-07-29T05:09:18;100510.50;;;21.37;48.88
46448;BME280;32145;50.390;30.778;2022-07-29T05:12:02;100513.97;;;21.48;48.58
46448;BME280;32145;50.390;30.778;2022-07-29T05:14:46;100511.09;;;21.58;48.17
46448;BME280;32145;50.390;30.778;2022-07-29T05:17:30;100507.47;;;21.63;47.98
46448;BME280;32145;50.390;30.778;2022-07-29T05:20:14;100507.00;;;21.56;47.56
46448;BME280;32145;50.390;30.778;2022-07-29T05:23:00;100516.00;;;21.37;47.10
46448;BME280;32145;50.390;30.778;2022-07-29T05:25:44;100509.91;;;21.40;48.14
46448;BME280;32145;50.390;30.778;2022-07-29T05:28:28;100511.59;;;21.66;48.21
46448;BME280;32145;50.390;30.778;2022-07-29T05:31:12;100514.88;;;21.92;47.96
46448;BME280;32145;50.390;30.778;2022-07-29T05:33:56;100511.34;;;22.11;47.74
46448;BME280;32145;50.390;30.778;2022-07-29T05:36:41;100517.75;;;22.25;47.56
46448;BME280;32145;50.390;30.778;2022-07-29T05:39:26;100515.69;;;22.36;47.26
46448;BME280;32145;50.390;30.778;2022-07-29T05:42:10;100514.19;;;22.44;47.42
46448;BME280;32145;50.390;30.778;2022-07-29T05:44:54;100519.22;;;22.42;46.60
46448;BME280;32145;50.390;30.778;2022-07-29T05:47:39;100511.34;;;22.49;47.14
46448;BME280;32145;50.390;30.778;2022-07-29T05:50:23;100519.44;;;22.65;46.93
46448;BME280;32145;50.390;30.778;2022-07-29T05:53:07;100525.31;;;22.77;46.87
46448;BME280;32145;50.390;30.778;2022-07-29T05:55:53;100531.22;;;22.90;46.49
46448;BME280;32145;50.390;30.778;2022-07-29T05:58:37;100525.53;;;23.00;46.70
46448;BME280;32145;50.390;30.778;2022-07-29T06:01:22;100521.75;;;23.10;46.31
46448;BME280;32145;50.390;30.778;2022-07-29T06:04:07;100523.53;;;23.20;45.54
46448;BME280;32145;50.390;30.778;2022-07-29T06:06:51;100520.91;;;23.29;45.00
46448;BME280;32145;50.390;30.778;2022-07-29T06:09:35;100529.59;;;23.22;44.33
46448;BME280;32145;50.390;30.778;2022-07-29T06:12:21;100528.25;;;23.20;44.13
46448;BME280;32145;50.390;30.778;2022-07-29T06:15:06;100527.84;;;23.26;44.20
46448;BME280;32145;50.390;30.778;2022-07-29T06:17:51;100522.16;;;23.37;44.45
46448;BME280;32145;50.390;30.778;2022-07-29T06:20:36;100527.72;;;23.51;44.20
46448;BME280;32145;50.390;30.778;2022-07-29T06:23:20;100518.00;;;23.53;43.47
46448;BME280;32145;50.390;30.778;2022-07-29T06:26:05;100526.50;;;23.57;43.64
46448;BME280;32145;50.390;30.778;2022-07-29T06:28:50;100530.00;;;23.63;43.02
46448;BME280;32145;50.390;30.778;2022-07-29T06:31:34;100523.75;;;23.71;43.24
46448;BME280;32145;50.390;30.778;2022-07-29T06:34:18;100525.91;;;23.74;41.94
46448;BME280;32145;50.390;30.778;2022-07-29T06:37:05;100529.56;;;23.69;41.19
46448;BME280;32145;50.390;30.778;2022-07-29T06:39:50;100531.00;;;23.67;41.02
46448;BME280;32145;50.390;30.778;2022-07-29T06:42:34;100527.53;;;23.75;41.75
46448;BME280;32145;50.390;30.778;2022-07-29T06:45:19;100524.44;;;23.91;42.19
46448;BME280;32145;50.390;30.778;2022-07-29T06:48:04;100521.97;;;24.03;41.98
46448;BME280;32145;50.390;30.778;2022-07-29T06:50:49;100521.56;;;24.10;41.90
46448;BME280;32145;50.390;30.778;2022-07-29T06:53:33;100522.09;;;24.12;41.44
46448;BME280;32145;50.390;30.778;2022-07-29T06:56:17;100522.16;;;24.07;41.46
46448;BME280;32145;50.390;30.778;2022-07-29T06:59:01;100522.28;;;24.16;41.71
46448;BME280;32145;50.390;30.778;2022-07-29T07:01:46;100520.31;;;24.30;41.85
46448;BME280;32145;50.390;30.778;2022-07-29T07:04:31;100529.09;;;24.46;41.06
46448;BME280;32145;50.390;30.778;2022-07-29T07:07:15;100526.41;;;24.55;40.19
46448;BME280;32145;50.390;30.778;2022-07-29T07:09:59;100521.63;;;24.47;39.91
46448;BME280;32145;50.390;30.778;2022-07-29T07:12:43;100525.41;;;24.51;40.07
46448;BME280;32145;50.390;30.778;2022-07-29T07:15:28;100527.81;;;24.67;40.02
46448;BME280;32145;50.390;30.778;2022-07-29T07:18:14;100530.03;;;24.79;39.24
46448;BME280;32145;50.390;30.778;2022-07-29T07:20:58;100524.81;;;24.77;39.07
46448;BME280;32145;50.390;30.778;2022-07-29T07:23:42;100528.19;;;24.74;39.16
46448;BME280;32145;50.390;30.778;2022-07-29T07:26:26;100532.09;;;24.73;38.83
46448;BME280;32145;50.390;30.778;2022-07-29T07:29:11;100524.66;;;24.59;38.20
46448;BME280;32145;50.390;30.778;2022-07-29T07:31:55;100525.88;;;24.67;38.56
46448;BME280;32145;50.390;30.778;2022-07-29T07:34:41;100532.41;;;24.71;38.61
46448;BME280;32145;50.390;30.778;2022-07-29T07:37:25;100518.13;;;24.78;39.40
46448;BME280;32145;50.390;30.778;2022-07-29T07:40:11;100518.78;;;24.98;39.21
46448;BME280;32145;50.390;30.778;2022-07-29T07:42:55;100514.94;;;25.08;38.73
46448;BME280;32145;50.390;30.778;2022-07-29T07:45:39;100522.00;;;25.23;39.01
46448;BME280;32145;50.390;30.778;2022-07-29T07:48:23;100533.84;;;25.38;39.12
46448;BME280;32145;50.390;30.778;2022-07-29T07:51:08;100532.53;;;25.35;37.97
46448;BME280;32145;50.390;30.778;2022-07-29T07:53:53;100536.25;;;25.30;38.19
46448;BME280;32145;50.390;30.778;2022-07-29T07:56:37;100542.19;;;25.38;38.27
46448;BME280;32145;50.390;30.778;2022-07-29T07:59:20;100546.41;;;25.35;37.67
46448;BME280;32145;50.390;30.778;2022-07-29T08:02:05;100545.34;;;25.22;37.69
46448;BME280;32145;50.390;30.778;2022-07-29T08:04:49;100548.88;;;25.37;39.13
46448;BME280;32145;50.390;30.778;2022-07-29T08:07:37;100541.88;;;25.48;38.08
46448;BME280;32145;50.390;30.778;2022-07-29T08:10:21;100538.13;;;25.44;38.15
46448;BME280;32145;50.390;30.778;2022-07-29T08:13:06;100543.16;;;25.65;38.60
46448;BME280;32145;50.390;30.778;2022-07-29T08:15:51;100539.97;;;25.80;38.31
46448;BME280;32145;50.390;30.778;2022-07-29T08:18:35;100534.44;;;25.98;37.89
46448;BME280;32145;50.390;30.778;2022-07-29T08:21:19;100547.38;;;26.11;37.33
46448;BME280;32145;50.390;30.778;2022-07-29T08:24:05;100542.94;;;25.93;36.64
46448;BME280;32145;50.390;30.778;2022-07-29T08:26:49;100537.94;;;25.72;37.09
46448;BME280;32145;50.390;30.778;2022-07-29T08:29:34;100539.59;;;25.73;37.50
46448;BME280;32145;50.390;30.778;2022-07-29T08:32:18;100548.09;;;25.77;37.10
46448;BME280;32145;50.390;30.778;2022-07-29T08:35:02;100538.66;;;25.86;37.34
46448;BME280;32145;50.390;30.778;2022-07-29T08:37:46;100528.22;;;25.92;37.31
46448;BME280;32145;50.390;30.778;2022-07-29T08:40:31;100544.03;;;25.83;37.57
46448;BME280;32145;50.390;30.778;2022-07-29T08:43:16;100539.13;;;25.48;37.19
46448;BME280;32145;50.390;30.778;2022-07-29T08:46:00;100535.31;;;25.35;37.94
46448;BME280;32145;50.390;30.778;2022-07-29T08:48:45;100541.63;;;25.27;37.77
46448;BME280;32145;50.390;30.778;2022-07-29T08:51:30;100532.72;;;25.39;37.71
46448;BME280;32145;50.390;30.778;2022-07-29T08:54:17;100528.38;;;25.55;37.23
46448;BME280;32145;50.390;30.778;2022-07-29T08:57:03;100535.41;;;25.84;37.84
46448;BME280;32145;50.390;30.778;2022-07-29T08:59:48;100529.09;;;26.19;37.93
46448;BME280;32145;50.390;30.778;2022-07-29T09:02:37;100527.19;;;26.46;36.83
46448;BME280;32145;50.390;30.778;2022-07-29T09:05:23;100519.00;;;26.41;36.00
46448;BME280;32145;50.390;30.778;2022-07-29T09:08:08;100521.31;;;26.57;36.50
46448;BME280;32145;50.390;30.778;2022-07-29T09:10:53;100521.63;;;26.82;35.91
46448;BME280;32145;50.390;30.778;2022-07-29T09:13:39;100523.13;;;26.97;35.52
46448;BME280;32145;50.390;30.778;2022-07-29T09:16:23;100517.63;;;27.27;35.48
46448;BME280;32145;50.390;30.778;2022-07-29T09:19:19;100521.75;;;27.69;35.04
46448;BME280;32145;50.390;30.778;2022-07-29T09:22:05;100518.72;;;27.91;34.76
46448;BME280;32145;50.390;30.778;2022-07-29T09:24:50;100520.63;;;28.00;33.88
46448;BME280;32145;50.390;30.778;2022-07-29T09:27:34;100518.53;;;28.18;33.75
46448;BME280;32145;50.390;30.778;2022-07-29T09:30:19;100520.09;;;28.37;33.61
46448;BME280;32145;50.390;30.778;2022-07-29T09:33:04;100519.38;;;28.40;33.55
46448;BME280;32145;50.390;30.778;2022-07-29T09:35:59;100507.88;;;28.41;32.66
46448;BME280;32145;50.390;30.778;2022-07-29T09:38:57;100510.63;;;28.29;32.98
46448;BME280;32145;50.390;30.778;2022-07-29T09:41:46;100522.19;;;28.10;33.30
46448;BME280;32145;50.390;30.778;2022-07-29T09:44:44;100518.00;;;27.73;33.74
46448;BME280;32145;50.390;30.778;2022-07-29T09:47:47;100520.84;;;27.47;34.10
46448;BME280;32145;50.390;30.778;2022-07-29T09:50:35;100525.16;;;27.26;33.88
46448;BME280;32145;50.390;30.778;2022-07-29T09:53:30;100524.72;;;27.15;34.06
46448;BME280;32145;50.390;30.778;2022-07-29T09:56:14;100515.25;;;26.99;34.82
46448;BME280;32145;50.390;30.778;2022-07-29T09:59:05;100519.81;;;27.04;35.29
46448;BME280;32145;50.390;30.778;2022-07-29T10:01:49;100518.53;;;27.01;35.49
46448;BME280;32145;50.390;30.778;2022-07-29T10:04:39;100517.88;;;27.04;35.58
46448;BME280;32145;50.390;30.778;2022-07-29T10:07:24;100517.03;;;27.04;35.84
46448;BME280;32145;50.390;30.778;2022-07-29T10:10:09;100513.28;;;27.08;35.68
46448;BME280;32145;50.390;30.778;2022-07-29T10:12:55;100514.69;;;27.23;35.67
46448;BME280;32145;50.390;30.778;2022-07-29T10:15:41;100516.13;;;27.38;35.59
46448;BME280;32145;50.390;30.778;2022-07-29T10:18:25;100504.81;;;27.44;35.26
46448;BME280;32145;50.390;30.778;2022-07-29T10:21:11;100513.97;;;27.44;35.38
46448;BME280;32145;50.390;30.778;2022-07-29T10:23:57;100506.78;;;27.34;35.53
46448;BME280;32145;50.390;30.778;2022-07-29T10:26:42;100504.88;;;27.26;35.68
46448;BME280;32145;50.390;30.778;2022-07-29T10:29:29;100513.22;;;27.17;35.59
46448;BME280;32145;50.390;30.778;2022-07-29T10:32:25;100510.97;;;27.10;35.76
46448;BME280;32145;50.390;30.778;2022-07-29T10:35:21;100504.63;;;27.01;35.79
46448;BME280;32145;50.390;30.778;2022-07-29T10:38:21;100506.41;;;26.97;35.68
46448;BME280;32145;50.390;30.778;2022-07-29T10:41:23;100500.53;;;26.98;36.15
46448;BME280;32145;50.390;30.778;2022-07-29T10:44:16;100496.91;;;26.98;35.93
46448;BME280;32145;50.390;30.778;2022-07-29T10:47:01;100495.09;;;27.11;35.88
46448;BME280;32145;50.390;30.778;2022-07-29T10:49:55;100492.09;;;27.25;35.84
46448;BME280;32145;50.390;30.778;2022-07-29T10:52:53;100500.47;;;27.25;35.46
46448;BME280;32145;50.390;30.778;2022-07-29T10:55:39;100493.94;;;27.21;36.24
46448;BME280;32145;50.390;30.778;2022-07-29T10:58:24;100493.22;;;27.33;36.13
46448;BME280;32145;50.390;30.778;2022-07-29T11:01:28;100490.03;;;27.52;35.96
46448;BME280;32145;50.390;30.778;2022-07-29T11:04:12;100490.50;;;27.54;35.87
46448;BME280;32145;50.390;30.778;2022-07-29T11:07:06;100493.78;;;27.56;35.46
46448;BME280;32145;50.390;30.778;2022-07-29T11:10:21;100496.59;;;27.86;35.14
46448;BME280;32145;50.390;30.778;2022-07-29T11:13:07;100496.09;;;27.93;34.54
46448;BME280;32145;50.390;30.778;2022-07-29T11:15:52;100493.44;;;27.97;35.03
46448;BME280;32145;50.390;30.778;2022-07-29T11:22:00;100504.50;;;27.84;35.07
46448;BME280;32145;50.390;30.778;2022-07-29T11:24:44;100493.88;;;27.77;34.89
46448;BME280;32145;50.390;30.778;2022-07-29T11:27:30;100493.56;;;27.79;35.18
46448;BME280;32145;50.390;30.778;2022-07-29T11:30:16;100489.97;;;28.00;35.03
46448;BME280;32145;50.390;30.778;2022-07-29T11:33:00;100482.41;;;28.30;35.00
46448;BME280;32145;50.390;30.778;2022-07-29T11:36:08;100481.28;;;28.65;34.23
46448;BME280;32145;50.390;30.778;2022-07-29T11:39:28;100481.78;;;28.80;34.08
46448;BME280;32145;50.390;30.778;2022-07-29T11:42:40;100479.31;;;29.00;34.05
46448;BME280;32145;50.390;30.778;2022-07-29T11:45:45;100476.09;;;29.10;33.84
46448;BME280;32145;50.390;30.778;2022-07-29T11:48:30;100471.22;;;29.19;33.44
46448;BME280;32145;50.390;30.778;2022-07-29T11:51:14;100465.88;;;29.27;33.27
46448;BME280;32145;50.390;30.778;2022-07-29T11:53:59;100468.19;;;29.37;32.73
46448;BME280;32145;50.390;30.778;2022-07-29T11:56:45;100468.69;;;29.27;32.86
46448;BME280;32145;50.390;30.778;2022-07-29T11:59:31;100471.81;;;29.13;32.97
46448;BME280;32145;50.390;30.778;2022-07-29T12:02:16;100465.81;;;29.02;33.58
46448;BME280;32145;50.390;30.778;2022-07-29T12:05:00;100459.75;;;28.87;33.81
46448;BME280;32145;50.390;30.778;2022-07-29T12:07:45;100447.97;;;28.81;34.11
46448;BME280;32145;50.390;30.778;2022-07-29T12:10:31;100455.88;;;28.79;33.58
46448;BME280;32145;50.390;30.778;2022-07-29T12:13:17;100454.06;;;28.62;33.25
46448;BME280;32145;50.390;30.778;2022-07-29T12:16:01;100449.06;;;28.34;33.44
46448;BME280;32145;50.390;30.778;2022-07-29T12:18:56;100454.25;;;28.45;33.45
46448;BME280;32145;50.390;30.778;2022-07-29T12:21:44;100449.06;;;28.55;33.45
46448;BME280;32145;50.390;30.778;2022-07-29T12:24:42;100448.97;;;28.64;32.81
46448;BME280;32145;50.390;30.778;2022-07-29T12:27:28;100447.25;;;28.72;33.61
46448;BME280;32145;50.390;30.778;2022-07-29T12:30:14;100452.97;;;28.76;33.36
46448;BME280;32145;50.390;30.778;2022-07-29T12:32:58;100444.63;;;28.88;33.55
46448;BME280;32145;50.390;30.778;2022-07-29T12:35:46;100446.53;;;29.09;33.34
46448;BME280;32145;50.390;30.778;2022-07-29T12:38:31;100443.31;;;29.44;32.71
46448;BME280;32145;50.390;30.778;2022-07-29T12:41:15;100436.38;;;29.63;32.91
46448;BME280;32145;50.390;30.778;2022-07-29T12:43:59;100440.09;;;29.55;33.01
46448;BME280;32145;50.390;30.778;2022-07-29T12:46:43;100446.78;;;29.29;32.62
46448;BME280;32145;50.390;30.778;2022-07-29T12:49:27;100437.63;;;28.82;32.52
46448;BME280;32145;50.390;30.778;2022-07-29T12:52:26;100436.88;;;28.60;33.67
46448;BME280;32145;50.390;30.778;2022-07-29T12:55:10;100432.25;;;28.64;33.81
46448;BME280;32145;50.390;30.778;2022-07-29T12:57:54;100439.44;;;28.65;34.07
46448;BME280;32145;50.390;30.778;2022-07-29T13:00:38;100430.38;;;28.68;33.57
46448;BME280;32145;50.390;30.778;2022-07-29T13:03:22;100425.63;;;28.69;33.96
46448;BME280;32145;50.390;30.778;2022-07-29T13:06:06;100427.16;;;28.66;33.52
46448;BME280;32145;50.390;30.778;2022-07-29T13:09:04;100430.13;;;28.61;33.28
46448;BME280;32145;50.390;30.778;2022-07-29T13:11:50;100427.56;;;28.56;33.15
46448;BME280;32145;50.390;30.778;2022-07-29T13:14:35;100417.88;;;28.41;33.72
46448;BME280;32145;50.390;30.778;2022-07-29T13:17:22;100414.88;;;28.25;34.02
46448;BME280;32145;50.390;30.778;2022-07-29T13:20:08;100419.72;;;28.15;34.07
46448;BME280;32145;50.390;30.778;2022-07-29T13:22:52;100405.97;;;28.10;34.07
46448;BME280;32145;50.390;30.778;2022-07-29T13:25:38;100399.72;;;28.13;34.13
46448;BME280;32145;50.390;30.778;2022-07-29T13:28:22;100399.31;;;28.24;34.13
46448;BME280;32145;50.390;30.778;2022-07-29T13:31:06;100403.22;;;28.44;34.56
46448;BME280;32145;50.390;30.778;2022-07-29T13:33:50;100409.41;;;28.50;34.55
46448;BME280;32145;50.390;30.778;2022-07-29T13:36:34;100404.06;;;28.45;34.33
46448;BME280;32145;50.390;30.778;2022-07-29T13:39:18;100396.81;;;28.31;34.32
46448;BME280;32145;50.390;30.778;2022-07-29T13:42:04;100400.66;;;28.17;34.29
46448;BME280;32145;50.390;30.778;2022-07-29T13:44:48;100402.56;;;28.04;35.15
46448;BME280;32145;50.390;30.778;2022-07-29T13:47:33;100397.25;;;27.90;34.96
46448;BME280;32145;50.390;30.778;2022-07-29T13:50:17;100401.44;;;27.84;35.23
46448;BME280;32145;50.390;30.778;2022-07-29T13:53:00;100402.31;;;27.76;35.08
46448;BME280;32145;50.390;30.778;2022-07-29T13:55:44;100397.63;;;27.68;35.14
46448;BME280;32145;50.390;30.778;2022-07-29T13:58:30;100402.22;;;27.63;34.95
46448;BME280;32145;50.390;30.778;2022-07-29T14:01:14;100392.88;;;27.59;35.20
46448;BME280;32145;50.390;30.778;2022-07-29T14:03:58;100395.66;;;27.59;35.18
46448;BME280;32145;50.390;30.778;2022-07-29T14:06:42;100400.25;;;27.64;35.11
46448;BME280;32145;50.390;30.778;2022-07-29T14:09:26;100408.50;;;27.82;34.96
46448;BME280;32145;50.390;30.778;2022-07-29T14:12:10;100405.50;;;28.08;34.66
46448;BME280;32145;50.390;30.778;2022-07-29T14:14:56;100399.38;;;28.15;33.95
46448;BME280;32145;50.390;30.778;2022-07-29T14:17:40;100398.34;;;28.20;34.18
46448;BME280;32145;50.390;30.778;2022-07-29T14:20:25;100399.50;;;28.18;34.41
46448;BME280;32145;50.390;30.778;2022-07-29T14:23:09;100390.19;;;28.14;34.63